Time;durP1;ratioP1;P1;durP2;ratioP2;P2;SDS_P1;SDS_P2;PMS_P1;PMS_P2;Temp;Humidity;BMP_temperature;BMP_pressure;BME280_temperature;BME280_humidity;BME280_pressure;Samples;Min_cycle;Max_cycle;Signal;HPM_P1;HPM_P2
2023/07/19 00:00:37;;;;;;;8.87;7.30;;;;;;;23.24;56.37;96015.44;5049560;28;20421;-70
2023/07/19 00:03:02;;;;;;;10.77;7.67;;;;;;;23.06;57.02;96012.78;5049476;28;20201;-72
2023/07/19 00:05:28;;;;;;;9.30;6.80;;;;;;;22.98;57.38;96007.31;5049256;28;20179;-70
2023/07/19 00:07:54;;;;;;;8.20;7.10;;;;;;;22.93;57.44;96007.78;5049365;28;20167;-69
2023/07/19 00:10:19;;;;;;;8.13;6.70;;;;;;;22.98;57.38;96008.19;5048881;28;20647;-68
2023/07/19 00:12:44;;;;;;;10.17;6.37;;;;;;;23.03;57.09;96010.41;5048938;28;20734;-70
2023/07/19 00:15:10;;;;;;;13.03;6.70;;;;;;;23.28;56.55;96010.63;5048997;28;20183;-71
2023/07/19 00:17:35;;;;;;;10.40;6.73;;;;;;;23.19;56.89;96020.41;5048949;28;20175;-69
2023/07/19 00:20:01;;;;;;;8.27;5.87;;;;;;;23.00;57.32;96014.22;5048471;28;20581;-69
2023/07/19 00:22:26;;;;;;;10.90;7.30;;;;;;;22.81;58.13;96003.66;5048866;28;20213;-68
2023/07/19 00:24:52;;;;;;;10.60;6.80;;;;;;;21.94;61.73;96003.16;5048815;28;20198;-70
2023/07/19 00:27:17;;;;;;;9.10;6.93;;;;;;;21.56;63.31;96004.13;5048873;28;20178;-71
2023/07/19 00:29:42;;;;;;;9.83;7.90;;;;;;;22.00;61.65;96009.75;5048548;28;20163;-70
2023/07/19 00:32:08;;;;;;;10.63;6.77;;;;;;;22.16;61.17;96006.44;5048885;28;20249;-70
2023/07/19 00:34:33;;;;;;;14.13;6.67;;;;;;;22.34;60.34;96007.34;5048330;28;20198;-69
2023/07/19 00:37:00;;;;;;;7.27;5.97;;;;;;;22.44;60.11;96006.44;5048438;28;20181;-70
2023/07/19 00:39:25;;;;;;;12.60;9.30;;;;;;;22.52;59.74;96002.03;5048324;28;20199;-69
2023/07/19 00:41:51;;;;;;;10.40;6.20;;;;;;;22.59;59.40;96007.63;5049042;28;20483;-70
2023/07/19 00:44:16;;;;;;;13.17;8.33;;;;;;;22.54;59.57;95992.03;5048676;28;20201;-71
2023/07/19 00:46:42;;;;;;;10.60;6.27;;;;;;;22.51;59.70;96003.03;5048802;28;20372;-71
2023/07/19 00:49:10;;;;;;;14.17;8.27;;;;;;;22.47;60.17;96004.31;5039080;28;20172;-71
2023/07/19 00:51:36;;;;;;;7.50;6.60;;;;;;;22.33;60.33;96000.31;5028894;28;20233;-70
2023/07/19 00:54:04;;;;;;;14.57;6.53;;;;;;;22.57;59.48;95999.75;5028467;28;20441;-71
2023/07/19 00:56:30;;;;;;;8.50;6.50;;;;;;;22.48;60.02;96006.00;5028349;28;20449;-71
2023/07/19 00:58:57;;;;;;;8.30;6.50;;;;;;;22.05;61.83;96004.81;5017871;28;20570;-71
2023/07/19 01:01:23;;;;;;;9.90;7.33;;;;;;;21.95;62.15;96015.53;5008787;28;20461;-71
2023/07/19 01:03:48;;;;;;;8.50;7.40;;;;;;;22.03;61.94;96014.78;5015205;28;21083;-70
2023/07/19 01:06:14;;;;;;;14.03;7.20;;;;;;;22.10;61.90;96020.41;5027862;28;20225;-70
2023/07/19 01:08:40;;;;;;;9.10;6.53;;;;;;;22.17;61.67;96016.13;5027163;28;20172;-70
2023/07/19 01:11:06;;;;;;;10.07;5.87;;;;;;;22.16;61.79;96023.31;5027719;28;20179;-71
2023/07/19 01:13:31;;;;;;;11.33;6.97;;;;;;;22.19;61.51;96011.50;5027709;28;20433;-71
2023/07/19 01:15:57;;;;;;;9.60;6.37;;;;;;;22.17;61.87;96016.97;5028021;28;20180;-71
2023/07/19 01:18:22;;;;;;;8.70;7.03;;;;;;;22.14;62.31;96013.78;5027579;28;20199;-71
2023/07/19 01:20:48;;;;;;;11.30;7.40;;;;;;;22.03;63.28;96012.13;5027225;28;20184;-69
2023/07/19 01:23:13;;;;;;;13.00;8.00;;;;;;;22.09;63.54;96019.56;5027318;28;20202;-71
2023/07/19 01:25:38;;;;;;;9.00;6.80;;;;;;;22.16;63.21;96017.97;5027511;28;20183;-71
2023/07/19 01:28:05;;;;;;;12.90;7.67;;;;;;;22.16;63.34;96014.47;5027413;28;20549;-71
2023/07/19 01:30:31;;;;;;;9.57;6.97;;;;;;;22.20;62.79;96015.84;5027262;28;20176;-71
2023/07/19 01:32:56;;;;;;;9.53;7.53;;;;;;;22.12;63.44;96015.75;5025737;28;20510;-70
2023/07/19 01:35:22;;;;;;;12.83;7.70;;;;;;;22.18;63.06;96017.81;5024981;28;20171;-70
2023/07/19 01:37:48;;;;;;;9.77;7.70;;;;;;;22.24;62.74;95998.53;5027562;28;20195;-70
2023/07/19 01:40:14;;;;;;;12.90;8.97;;;;;;;22.12;63.04;96015.75;5027000;28;20183;-70
2023/07/19 01:42:41;;;;;;;15.13;8.47;;;;;;;22.10;63.01;96013.22;5026919;28;20203;-70
2023/07/19 01:45:07;;;;;;;22.37;9.00;;;;;;;22.10;62.94;96007.03;5027174;28;21281;-70
2023/07/19 01:47:33;;;;;;;10.87;8.47;;;;;;;22.06;63.03;96013.66;5026376;28;20182;-71
2023/07/19 01:49:59;;;;;;;11.20;8.60;;;;;;;22.03;63.30;96006.78;5025886;28;20182;-71
2023/07/19 01:52:24;;;;;;;13.00;8.60;;;;;;;22.13;62.83;96006.72;5026357;28;20175;-70
2023/07/19 01:54:50;;;;;;;10.90;7.70;;;;;;;22.03;63.19;96004.09;5025158;28;20496;-69
2023/07/19 01:57:15;;;;;;;12.33;8.67;;;;;;;21.98;63.36;96014.41;5026085;28;20179;-69
2023/07/19 01:59:41;;;;;;;13.93;8.63;;;;;;;21.93;63.55;95996.13;5025686;28;20600;-71
2023/07/19 02:02:06;;;;;;;16.07;9.00;;;;;;;21.81;64.20;96004.50;5025966;28;20302;-69
2023/07/19 02:04:31;;;;;;;14.33;8.33;;;;;;;21.86;63.69;96004.91;5025855;28;20194;-70
2023/07/19 02:06:57;;;;;;;10.10;8.90;;;;;;;21.87;63.84;95995.88;5025868;28;20268;-70
2023/07/19 02:09:22;;;;;;;10.60;7.80;;;;;;;21.87;64.00;95988.69;5025791;28;20682;-70
2023/07/19 02:11:48;;;;;;;9.90;8.33;;;;;;;21.78;64.46;95993.13;5025749;28;20163;-67
2023/07/19 02:14:13;;;;;;;15.03;8.23;;;;;;;21.78;64.22;95998.47;5025595;28;20195;-70
2023/07/19 02:16:39;;;;;;;9.27;7.63;;;;;;;21.88;63.76;95992.25;5025910;28;20186;-70
2023/07/19 02:19:05;;;;;;;9.93;7.80;;;;;;;21.75;64.22;95985.38;5025534;28;20582;-69
2023/07/19 02:21:31;;;;;;;13.67;8.90;;;;;;;21.76;64.18;95980.91;5025827;28;20184;-68
2023/07/19 02:23:57;;;;;;;16.70;8.87;;;;;;;21.82;63.78;95982.97;5026109;28;20430;-69
2023/07/19 02:26:23;;;;;;;7.70;6.90;;;;;;;21.71;64.24;95975.16;5026038;28;20179;-70
2023/07/19 02:28:48;;;;;;;9.80;7.43;;;;;;;21.85;63.63;95976.47;5025858;28;20865;-69
2023/07/19 02:31:14;;;;;;;11.40;8.87;;;;;;;21.79;63.61;95975.25;5026261;28;20226;-71
2023/07/19 02:33:39;;;;;;;11.00;8.40;;;;;;;21.89;63.12;95977.88;5026268;28;20196;-70
2023/07/19 02:36:05;;;;;;;13.47;8.50;;;;;;;21.97;62.80;95978.00;5031685;28;20640;-71
2023/07/19 02:38:30;;;;;;;20.50;9.53;;;;;;;22.12;62.20;95973.81;5053325;28;20199;-71
2023/07/19 02:40:59;;;;;;;14.63;9.23;;;;;;;21.93;62.93;95973.94;5008702;28;1115762;-69
2023/07/19 02:43:26;;;;;;;14.30;8.57;;;;;;;21.79;63.54;95975.25;5046180;28;20545;-69
2023/07/19 02:45:53;;;;;;;13.50;7.50;;;;;;;21.71;63.79;95976.00;5044474;28;20394;-69
2023/07/19 02:48:19;;;;;;;11.20;7.00;;;;;;;21.80;63.43;95970.75;5046948;28;20421;-70
2023/07/19 02:50:48;;;;;;;8.67;7.80;;;;;;;21.69;63.52;95985.13;5046932;28;20515;-70
2023/07/19 02:53:14;;;;;;;15.37;8.20;;;;;;;21.68;63.65;95983.44;5046672;28;20437;-70
2023/07/19 02:55:42;;;;;;;23.57;9.63;;;;;;;21.82;63.33;95990.97;5046354;28;20406;-69
2023/07/19 02:58:08;;;;;;;65.10;14.20;;;;;;;21.77;63.48;95986.06;5046669;28;20201;-69
2023/07/19 03:00:33;;;;;;;24.97;9.40;;;;;;;21.75;63.56;95981.88;5046174;28;20409;-70
2023/07/19 03:02:59;;;;;;;25.57;8.70;;;;;;;21.78;63.16;95977.09;5046033;28;20191;-70
2023/07/19 03:05:24;;;;;;;18.63;8.10;;;;;;;21.66;63.82;95983.59;5045590;28;20301;-69
2023/07/19 03:07:50;;;;;;;16.37;9.20;;;;;;;21.71;63.51;95992.00;5045271;28;20640;-70
2023/07/19 03:10:16;;;;;;;14.93;7.83;;;;;;;21.70;63.54;95984.13;5045728;28;20173;-70
2023/07/19 03:12:41;;;;;;;19.13;8.60;;;;;;;21.70;63.53;95981.47;5045680;28;20167;-69
2023/07/19 03:15:07;;;;;;;24.93;8.40;;;;;;;21.75;63.21;95984.53;5045943;28;20422;-69
2023/07/19 03:17:33;;;;;;;12.50;7.70;;;;;;;21.67;63.39;95976.44;5045833;28;20648;-71
2023/07/19 03:19:58;;;;;;;16.07;7.20;;;;;;;21.62;63.64;95984.88;5045830;28;20240;-70
2023/07/19 03:22:23;;;;;;;14.87;8.20;;;;;;;21.61;63.56;95977.84;5045868;28;20250;-69
2023/07/19 03:24:49;;;;;;;13.20;7.67;;;;;;;21.62;63.74;95981.38;5046061;28;20281;-70
2023/07/19 03:27:14;;;;;;;11.20;8.87;;;;;;;21.63;63.70;95977.69;5045802;28;20205;-70
2023/07/19 03:29:39;;;;;;;18.50;8.27;;;;;;;21.61;63.77;95980.50;5045401;28;20186;-70
2023/07/19 03:32:05;;;;;;;18.00;8.50;;;;;;;21.67;63.56;95985.28;5045545;28;20253;-70
2023/07/19 03:34:31;;;;;;;10.43;8.00;;;;;;;21.61;63.44;95980.50;5045441;28;20194;-70
2023/07/19 03:36:56;;;;;;;14.67;9.17;;;;;;;21.48;64.26;95996.84;5047059;28;20167;-70
2023/07/19 03:39:21;;;;;;;8.83;7.93;;;;;;;21.46;64.19;95992.66;5045251;28;20194;-70
2023/07/19 03:41:47;;;;;;;10.60;7.97;;;;;;;21.52;64.20;95997.41;5045976;28;20734;-69
2023/07/19 03:44:12;;;;;;;12.43;8.80;;;;;;;21.45;64.43;95997.16;5045598;28;20214;-71
2023/07/19 03:46:38;;;;;;;24.83;8.77;;;;;;;21.46;64.55;95988.16;5045700;28;20159;-70
2023/07/19 03:49:04;;;;;;;16.93;9.03;;;;;;;21.55;64.19;95989.13;5036254;28;20533;-70
2023/07/19 03:51:29;;;;;;;16.70;9.43;;;;;;;21.46;64.35;95993.50;5025800;28;20195;-68
2023/07/19 03:53:55;;;;;;;15.43;8.77;;;;;;;21.45;64.58;95990.94;5025475;28;20959;-69
2023/07/19 03:56:20;;;;;;;19.27;8.60;;;;;;;21.46;64.42;95998.00;5025347;28;20545;-69
2023/07/19 03:58:48;;;;;;;14.23;10.10;;;;;;;21.44;64.59;96002.63;5025420;28;20254;-69
2023/07/19 04:01:14;;;;;;;15.27;10.23;;;;;;;21.46;64.65;96008.66;5025527;28;20167;-69
2023/07/19 04:03:41;;;;;;;22.07;12.17;;;;;;;21.33;65.24;96003.59;5025647;28;21098;-69
2023/07/19 04:06:06;;;;;;;12.30;8.20;;;;;;;21.44;64.97;95997.28;5025733;28;20172;-69
2023/07/19 04:08:33;;;;;;;12.47;9.00;;;;;;;21.50;64.89;95996.72;5025579;28;20418;-71
2023/07/19 04:10:59;;;;;;;15.10;9.20;;;;;;;21.56;64.52;95990.78;5025252;28;20195;-70
2023/07/19 04:13:28;;;;;;;18.93;10.10;;;;;;;21.50;64.98;95989.56;5025694;28;20517;-70
2023/07/19 04:15:53;;;;;;;18.43;9.37;;;;;;;21.49;65.13;95993.19;5025432;28;20672;-69
2023/07/19 04:18:19;;;;;;;20.70;9.50;;;;;;;21.60;64.47;95992.19;5027383;28;20453;-70
2023/07/19 04:20:44;;;;;;;20.43;9.90;;;;;;;21.72;64.16;95996.34;5029066;28;20171;-69
2023/07/19 04:23:10;;;;;;;21.37;8.70;;;;;;;21.77;63.89;96006.59;5010891;28;20677;-70
2023/07/19 04:25:35;;;;;;;22.67;10.00;;;;;;;21.77;63.78;96009.28;5028784;28;20178;-69
2023/07/19 04:28:01;;;;;;;26.03;9.27;;;;;;;21.78;63.80;96003.78;5022297;28;20542;-70
2023/07/19 04:30:26;;;;;;;14.13;8.57;;;;;;;21.73;63.92;96008.75;5026328;28;20178;-69
2023/07/19 04:32:55;;;;;;;19.63;9.30;;;;;;;21.88;63.21;96009.09;5029088;28;20191;-70
2023/07/19 04:35:24;;;;;;;20.43;9.23;;;;;;;22.13;62.68;96017.41;5022742;28;20226;-68
2023/07/19 04:37:50;;;;;;;22.60;9.90;;;;;;;22.35;61.85;96021.56;5022424;28;20445;-70
2023/07/19 04:40:16;;;;;;;13.70;9.30;;;;;;;22.64;60.94;96012.53;5027581;28;20924;-69
2023/07/19 04:42:42;;;;;;;10.77;7.60;;;;;;;22.78;60.00;96014.66;5028165;28;20424;-70
2023/07/19 04:45:08;;;;;;;9.80;7.70;;;;;;;22.81;60.01;96017.03;5028742;28;20446;-70
2023/07/19 04:47:33;;;;;;;14.57;9.10;;;;;;;22.58;60.65;96028.19;5027797;28;20414;-69
2023/07/19 04:49:58;;;;;;;18.07;9.37;;;;;;;22.59;60.55;96026.34;5027732;28;21118;-70
2023/07/19 04:52:24;;;;;;;16.43;9.10;;;;;;;22.55;60.85;96030.31;5025496;28;20266;-70
2023/07/19 04:54:49;;;;;;;16.53;9.80;;;;;;;22.67;60.49;96030.94;5026834;28;20196;-70
2023/07/19 04:57:15;;;;;;;12.60;8.83;;;;;;;22.75;60.05;96028.38;5027108;28;20284;-70
2023/07/19 04:59:41;;;;;;;15.40;8.70;;;;;;;22.62;60.71;96024.19;5025595;28;20227;-70
2023/07/19 05:02:07;;;;;;;22.37;9.87;;;;;;;22.60;60.55;96028.03;5025445;28;20449;-70
2023/07/19 05:04:33;;;;;;;15.47;9.83;;;;;;;22.31;61.69;96030.88;5025745;28;20299;-70
2023/07/19 05:06:59;;;;;;;30.53;9.63;;;;;;;22.29;61.78;96028.34;5029689;28;20180;-70
2023/07/19 05:09:24;;;;;;;27.60;9.60;;;;;;;22.64;60.84;96026.72;5026049;28;20167;-71
2023/07/19 05:11:49;;;;;;;21.43;9.50;;;;;;;22.94;59.90;96012.16;5025644;28;20207;-71
2023/07/19 05:14:15;;;;;;;25.10;10.93;;;;;;;23.15;59.23;96016.34;5024781;28;20278;-70
2023/07/19 05:16:40;;;;;;;25.40;10.00;;;;;;;23.32;58.79;96015.50;5025027;28;20619;-71
2023/07/19 05:19:06;;;;;;;26.97;9.40;;;;;;;23.58;57.96;96018.22;5024695;28;20199;-70
2023/07/19 05:21:31;;;;;;;21.60;8.03;;;;;;;23.73;57.01;96017.63;5023882;28;20183;-70
2023/07/19 05:23:57;;;;;;;28.77;9.93;;;;;;;24.13;56.13;96013.50;5023564;28;20196;-71
2023/07/19 05:26:24;;;;;;;29.43;9.47;;;;;;;24.12;55.62;96015.38;5025113;28;20189;-69
2023/07/19 05:28:49;;;;;;;23.37;8.93;;;;;;;24.32;55.22;96018.63;5023851;28;20180;-70
2023/07/19 05:31:15;;;;;;;56.10;12.07;;;;;;;24.42;54.74;96023.84;5023436;28;20544;-69
2023/07/19 05:33:40;;;;;;;43.60;9.43;;;;;;;24.60;53.89;96023.78;5023337;28;20230;-71
2023/07/19 05:36:05;;;;;;;23.90;9.83;;;;;;;24.55;54.25;96026.94;5030139;28;20179;-69
2023/07/19 05:38:32;;;;;;;22.13;9.50;;;;;;;24.49;53.96;96025.72;5020017;28;20211;-70
2023/07/19 05:41:02;;;;;;;33.47;9.60;;;;;;;24.63;54.19;96026.94;5020718;28;20191;-69
2023/07/19 05:43:28;;;;;;;27.63;10.00;;;;;;;24.81;53.54;96026.00;5025151;28;20565;-70
2023/07/19 05:46:00;;;;;;;29.57;10.50;;;;;;;25.17;52.80;96028.41;5024810;28;20476;-69
2023/07/19 05:48:26;;;;;;;9.90;7.10;;;;;;;25.28;51.88;96020.88;5028703;28;20513;-70
2023/07/19 05:50:52;;;;;;;42.40;10.50;;;;;;;25.46;51.64;96017.16;5044033;28;20480;-69
2023/07/19 05:53:17;;;;;;;55.03;11.23;;;;;;;25.48;51.29;96020.53;5028186;28;20259;-69
2023/07/19 05:55:43;;;;;;;18.30;8.30;;;;;;;25.63;50.01;96026.03;5030016;28;20175;-69
2023/07/19 05:58:08;;;;;;;11.83;6.90;;;;;;;25.87;49.55;96028.75;5027510;28;20191;-69
2023/07/19 06:00:33;;;;;;;8.17;6.23;;;;;;;25.91;48.41;96032.72;5043619;28;20175;-70
2023/07/19 06:02:59;;;;;;;12.40;7.30;;;;;;;25.86;48.12;96035.09;5043870;28;20203;-71
2023/07/19 06:05:25;;;;;;;15.30;6.20;;;;;;;25.89;46.64;96033.91;5044318;28;20233;-72
2023/07/19 06:07:50;;;;;;;16.43;6.93;;;;;;;25.71;46.10;96032.25;5044156;28;20178;-70
2023/07/19 06:10:16;;;;;;;9.43;5.80;;;;;;;25.69;45.18;96028.06;5040587;28;20625;-69
2023/07/19 06:12:43;;;;;;;7.47;5.90;;;;;;;25.75;44.65;96035.44;5024618;28;20329;-71
2023/07/19 06:15:09;;;;;;;10.93;5.47;;;;;;;25.78;44.46;96037.78;5007146;28;20716;-71
2023/07/19 06:17:36;;;;;;;39.00;7.30;;;;;;;25.98;43.57;96043.66;5022388;28;20528;-71
2023/07/19 06:20:01;;;;;;;12.40;5.40;;;;;;;26.04;44.01;96032.22;5022743;28;20237;-69
2023/07/19 06:22:27;;;;;;;10.10;6.07;;;;;;;26.13;43.37;96028.50;5025388;28;20435;-70
2023/07/19 06:24:52;;;;;;;25.40;6.93;;;;;;;26.28;42.95;96028.59;5024335;28;20226;-71
2023/07/19 06:27:17;;;;;;;11.53;5.10;;;;;;;26.50;42.82;96026.16;5024491;28;20202;-69
2023/07/19 06:29:43;;;;;;;8.80;5.13;;;;;;;26.57;42.59;96027.97;5019651;28;20539;-70
2023/07/19 06:32:09;;;;;;;8.30;5.63;;;;;;;26.46;42.64;96024.81;5024177;28;20179;-71
2023/07/19 06:34:34;;;;;;;6.80;4.90;;;;;;;26.51;41.74;96028.69;5034401;28;20209;-71
2023/07/19 06:37:01;;;;;;;9.43;5.47;;;;;;;26.69;41.30;96027.59;5045389;28;20178;-71
2023/07/19 06:39:28;;;;;;;12.37;5.60;;;;;;;26.68;41.66;96026.75;5044383;28;20714;-71
2023/07/19 06:41:53;;;;;;;19.40;6.80;;;;;;;26.89;41.31;96031.53;5045606;28;20531;-71
2023/07/19 06:44:18;;;;;;;10.50;5.10;;;;;;;26.89;40.90;96030.69;5024714;28;20453;-71
2023/07/19 06:46:44;;;;;;;12.83;5.37;;;;;;;27.01;40.30;96029.25;5036781;28;20171;-72
2023/07/19 06:49:09;;;;;;;10.00;5.40;;;;;;;26.84;40.69;96030.41;5030001;28;20167;-71
2023/07/19 06:51:35;;;;;;;7.27;4.77;;;;;;;26.59;41.01;96035.91;5026574;28;20202;-70
2023/07/19 06:54:00;;;;;;;7.37;4.90;;;;;;;26.13;41.39;96041.94;5026020;28;20191;-70
2023/07/19 06:56:25;;;;;;;11.23;5.00;;;;;;;26.22;40.97;96037.38;5026303;28;20195;-70
2023/07/19 06:58:51;;;;;;;6.13;4.33;;;;;;;26.05;41.45;96043.81;5026232;28;20199;-71
2023/07/19 07:01:16;;;;;;;11.97;4.70;;;;;;;26.03;40.77;96043.13;5032426;28;20666;-71
2023/07/19 07:03:41;;;;;;;8.03;5.37;;;;;;;25.91;40.99;96054.25;5046572;28;20226;-70
2023/07/19 07:06:07;;;;;;;6.80;5.60;;;;;;;26.16;40.28;96051.50;5028615;28;20175;-71
2023/07/19 07:08:32;;;;;;;7.90;4.70;;;;;;;26.15;40.32;96053.38;5046643;28;20167;-71
2023/07/19 07:11:01;;;;;;;8.87;4.60;;;;;;;26.63;39.80;96058.75;5046239;28;20166;-70
2023/07/19 07:13:27;;;;;;;8.00;4.40;;;;;;;26.74;39.34;96061.06;5046217;28;20199;-71
2023/07/19 07:15:53;;;;;;;10.17;5.03;;;;;;;26.45;39.47;96055.44;5046474;28;20410;-69
2023/07/19 07:18:18;;;;;;;13.53;5.60;;;;;;;26.52;39.44;96062.63;5047077;28;20467;-70
2023/07/19 07:20:43;;;;;;;9.10;4.40;;;;;;;26.69;38.91;96055.34;5046688;28;20159;-69
2023/07/19 07:23:09;;;;;;;6.40;4.67;;;;;;;26.61;39.40;96060.78;5047541;28;20217;-70
2023/07/19 07:25:35;;;;;;;6.90;4.47;;;;;;;26.50;39.28;96059.28;5047812;28;20182;-71
2023/07/19 07:28:01;;;;;;;6.20;4.70;;;;;;;26.27;39.62;96067.28;5047261;28;20159;-70
2023/07/19 07:30:27;;;;;;;15.47;4.67;;;;;;;26.84;38.35;96060.84;5046434;28;20863;-69
2023/07/19 07:32:52;;;;;;;10.73;4.57;;;;;;;27.55;36.95;96060.72;5046386;28;20194;-70
2023/07/19 07:35:18;;;;;;;8.30;4.30;;;;;;;27.76;36.66;96065.41;5046714;28;20178;-70
2023/07/19 07:37:43;;;;;;;9.93;4.67;;;;;;;27.99;35.47;96059.97;5035158;28;20167;-71
2023/07/19 07:40:10;;;;;;;11.17;4.83;;;;;;;28.12;35.80;96065.59;5026429;28;20179;-68
2023/07/19 07:42:37;;;;;;;15.43;5.20;;;;;;;28.04;35.06;96063.81;5025455;28;20709;-70
2023/07/19 07:45:03;;;;;;;11.17;4.33;;;;;;;27.88;35.63;96066.69;5028358;28;20406;-71
2023/07/19 07:47:28;;;;;;;8.33;3.90;;;;;;;28.12;35.30;96062.88;5033621;28;20510;-70
2023/07/19 07:49:55;;;;;;;18.40;5.70;;;;;;;28.37;34.54;96068.84;5034313;28;20595;-70
2023/07/19 07:52:21;;;;;;;37.10;8.00;;;;;;;28.45;32.81;96065.22;5035848;28;20167;-71
2023/07/19 07:54:46;;;;;;;10.90;4.73;;;;;;;28.58;32.99;96067.28;5018018;28;20519;-71
2023/07/19 07:57:12;;;;;;;17.83;5.47;;;;;;;28.55;32.77;96065.78;5031353;28;20175;-71
2023/07/19 07:59:37;;;;;;;7.53;4.23;;;;;;;28.39;33.23;96061.38;5030810;28;20281;-69
2023/07/19 08:02:03;;;;;;;9.90;4.53;;;;;;;28.35;33.31;96067.34;5030998;28;20512;-70
2023/07/19 08:04:28;;;;;;;12.97;4.83;;;;;;;28.35;33.69;96060.09;5030872;28;20198;-70
2023/07/19 08:06:54;;;;;;;11.60;4.40;;;;;;;28.35;33.56;96062.81;5030425;28;20209;-70
2023/07/19 08:09:19;;;;;;;12.37;5.07;;;;;;;28.45;33.52;96051.72;5029460;28;20178;-71
2023/07/19 08:11:45;;;;;;;4.57;3.97;;;;;;;28.57;33.54;96054.81;5029497;28;20175;-71
2023/07/19 08:14:10;;;;;;;13.60;5.30;;;;;;;29.02;33.11;96045.59;5029899;28;20325;-70
2023/07/19 08:16:36;;;;;;;10.30;4.60;;;;;;;29.02;32.42;96044.75;5030603;28;20178;-70
2023/07/19 08:19:01;;;;;;;10.17;4.67;;;;;;;28.82;32.77;96031.88;5029893;28;20195;-70
2023/07/19 08:21:26;;;;;;;6.97;4.60;;;;;;;28.83;33.31;96030.00;5029847;28;20175;-70
2023/07/19 08:23:55;;;;;;;13.10;4.67;;;;;;;28.98;32.25;96028.06;5029473;28;20191;-70
2023/07/19 08:26:21;;;;;;;7.60;3.97;;;;;;;29.20;32.11;96020.88;5029255;28;20175;-70
2023/07/19 08:28:47;;;;;;;83.93;12.50;;;;;;;29.37;31.67;96016.03;5029266;28;20402;-70
2023/07/19 08:31:14;;;;;;;14.13;5.20;;;;;;;29.20;31.61;96020.88;5029090;28;20766;-69
2023/07/19 08:33:39;;;;;;;11.60;4.70;;;;;;;29.04;31.77;96021.09;5029850;28;20885;-71
2023/07/19 08:36:05;;;;;;;13.07;4.00;;;;;;;28.98;31.25;96016.44;5029786;28;20496;-72
2023/07/19 08:38:31;;;;;;;7.80;3.80;;;;;;;29.01;30.86;96016.03;5029450;28;20203;-70
2023/07/19 08:41:05;;;;;;;9.40;4.80;;;;;;;29.25;30.79;96014.88;5029014;28;20190;-70
2023/07/19 08:43:33;;;;;;;10.30;4.20;;;;;;;29.29;31.47;96011.59;5030037;28;20224;-71
2023/07/19 08:45:58;;;;;;;10.60;4.70;;;;;;;29.11;31.27;96016.63;5030185;28;20875;-71
2023/07/19 08:48:24;;;;;;;5.73;4.20;;;;;;;29.22;31.32;96017.94;5033442;28;20409;-70
2023/07/19 08:50:58;;;;;;;5.73;4.13;;;;;;;29.04;30.78;96010.28;5049043;28;20182;-70
2023/07/19 08:53:24;;;;;;;11.57;3.93;;;;;;;29.02;31.30;96007.75;5049056;28;20648;-70
2023/07/19 08:55:51;;;;;;;7.63;4.00;;;;;;;28.94;31.45;96016.00;5049313;28;20434;-70
2023/07/19 08:58:17;;;;;;;8.90;4.60;;;;;;;28.57;31.58;96007.06;5049176;28;20460;-70
2023/07/19 09:00:47;;;;;;;9.73;4.03;;;;;;;28.53;31.42;96016.53;5048556;28;20409;-70
2023/07/19 09:03:14;;;;;;;9.70;4.70;;;;;;;28.61;32.25;96015.63;5048437;28;20425;-71
2023/07/19 09:05:40;;;;;;;19.53;4.50;;;;;;;28.92;32.24;96016.19;5048813;28;20432;-70
2023/07/19 09:08:09;;;;;;;9.53;4.83;;;;;;;28.89;31.46;96016.56;5049279;28;20447;-69
2023/07/19 09:10:35;;;;;;;18.00;4.63;;;;;;;29.12;31.68;96013.69;5048728;28;20170;-69
2023/07/19 09:13:05;;;;;;;7.73;4.37;;;;;;;29.13;31.35;96009.16;5048935;28;20429;-71
2023/07/19 09:15:33;;;;;;;8.27;4.77;;;;;;;29.19;31.76;96002.97;5049916;28;20448;-70
2023/07/19 09:18:01;;;;;;;9.03;4.40;;;;;;;29.33;30.08;96012.03;5049752;28;20542;-70
2023/07/19 09:20:27;;;;;;;5.10;4.07;;;;;;;29.38;30.06;96016.84;5048984;28;20843;-70
2023/07/19 09:22:53;;;;;;;10.43;3.80;;;;;;;29.55;30.05;96012.84;5049140;28;21297;-71
2023/07/19 09:25:18;;;;;;;12.13;3.93;;;;;;;29.94;29.27;96016.91;5049431;28;20436;-71
2023/07/19 09:27:43;;;;;;;6.07;3.13;;;;;;;29.91;28.55;96009.22;5048738;28;20569;-71
2023/07/19 09:30:13;;;;;;;8.43;3.90;;;;;;;29.95;28.61;96019.44;5048238;28;20547;-70
2023/07/19 09:32:39;;;;;;;5.40;3.87;;;;;;;29.94;28.25;96009.63;5048968;28;20271;-70
2023/07/19 09:35:06;;;;;;;8.80;3.03;;;;;;;29.94;28.43;96016.91;5048290;28;20910;-70
2023/07/19 09:37:31;;;;;;;7.80;3.70;;;;;;;30.11;27.99;96012.03;5048180;28;21123;-70
2023/07/19 09:39:59;;;;;;;6.73;3.40;;;;;;;30.07;27.72;96011.59;5047059;28;20452;-69
2023/07/19 09:42:25;;;;;;;8.20;2.77;;;;;;;30.03;26.99;96014.91;5048039;28;20540;-69
2023/07/19 09:44:52;;;;;;;4.73;3.07;;;;;;;30.14;27.07;96017.88;5047940;28;20425;-71
2023/07/19 09:47:18;;;;;;;15.23;4.50;;;;;;;30.34;26.72;96017.19;5048758;28;20170;-72
2023/07/19 09:49:44;;;;;;;13.60;3.87;;;;;;;30.41;26.60;96020.75;5032625;28;20441;-69
2023/07/19 09:52:16;;;;;;;12.53;2.97;;;;;;;30.02;26.38;96027.56;5027685;28;20464;-70
2023/07/19 09:54:43;;;;;;;5.87;2.60;;;;;;;29.81;26.90;96022.22;5027666;28;20233;-70
2023/07/19 09:57:09;;;;;;;11.53;3.40;;;;;;;29.89;26.60;96030.22;5027542;28;20401;-70
2023/07/19 09:59:43;;;;;;;4.20;2.93;;;;;;;30.12;25.38;96030.78;5008974;28;20457;-70
2023/07/19 10:02:10;;;;;;;8.43;3.23;;;;;;;30.35;25.46;96032.38;5027203;28;20175;-70
2023/07/19 10:04:38;;;;;;;6.00;3.10;;;;;;;29.94;25.83;96035.84;5027392;28;20413;-70
2023/07/19 10:07:20;;;;;;;12.27;2.97;;;;;;;29.51;26.71;96025.94;5027726;28;20445;-71
2023/07/19 10:09:49;;;;;;;7.23;3.40;;;;;;;29.72;26.92;96030.50;5027268;28;20405;-70
2023/07/19 10:12:14;;;;;;;5.03;2.80;;;;;;;29.99;26.78;96019.88;5027281;28;20413;-71
2023/07/19 10:14:40;;;;;;;9.67;3.83;;;;;;;30.27;26.99;96021.75;5026517;28;20433;-70
2023/07/19 10:17:06;;;;;;;5.90;3.27;;;;;;;30.39;26.12;96012.84;5026592;28;20202;-70
2023/07/19 10:19:32;;;;;;;7.60;3.30;;;;;;;30.18;26.29;96012.91;5026216;28;20195;-71
2023/07/19 10:22:06;;;;;;;9.17;2.83;;;;;;;30.03;26.45;96007.63;5026938;28;20413;-71
2023/07/19 10:24:33;;;;;;;7.03;3.57;;;;;;;29.96;26.81;96009.44;5026708;28;20194;-71
2023/07/19 10:27:08;;;;;;;9.50;3.50;;;;;;;29.88;27.08;96018.56;5026710;28;20414;-71
2023/07/19 10:29:44;;;;;;;7.20;3.50;;;;;;;29.74;27.06;96009.50;5008500;28;20475;-71
2023/07/19 10:32:10;;;;;;;8.27;3.03;;;;;;;29.86;26.69;96014.34;5026954;28;20433;-70
2023/07/19 10:34:36;;;;;;;13.70;4.13;;;;;;;29.85;26.95;96010.00;5026366;28;20862;-71
2023/07/19 10:37:06;;;;;;;15.07;3.80;;;;;;;29.83;26.95;96004.75;5026442;28;20254;-71
2023/07/19 10:39:32;;;;;;;8.27;3.33;;;;;;;29.97;26.27;96008.41;5026552;28;20231;-71
2023/07/19 10:41:59;;;;;;;5.50;3.20;;;;;;;29.81;26.86;96006.00;5026465;28;20425;-70
2023/07/19 10:44:26;;;;;;;13.57;4.10;;;;;;;29.66;26.97;95998.78;5026340;28;20930;-71
2023/07/19 10:46:54;;;;;;;11.80;3.73;;;;;;;29.31;27.19;95995.16;5026110;28;20413;-69
2023/07/19 10:49:24;;;;;;;9.00;3.40;;;;;;;29.18;27.63;96001.31;5037416;28;20401;-71
2023/07/19 10:51:57;;;;;;;9.40;3.80;;;;;;;29.12;28.38;95985.84;5046622;28;20397;-71
2023/07/19 10:54:22;;;;;;;5.40;3.83;;;;;;;29.04;28.75;95983.25;5046213;28;20436;-71
2023/07/19 10:56:49;;;;;;;7.63;4.30;;;;;;;29.16;28.60;95984.44;5046048;28;20405;-71
2023/07/19 10:59:15;;;;;;;10.00;4.17;;;;;;;29.09;28.45;95975.44;5029233;28;20290;-70
2023/07/19 11:01:40;;;;;;;8.87;3.50;;;;;;;29.28;28.36;95980.19;5026336;28;20504;-70
2023/07/19 11:04:07;;;;;;;3.70;3.40;;;;;;;29.40;28.77;95974.25;5025832;28;20274;-71
2023/07/19 11:06:38;;;;;;;5.70;4.43;;;;;;;29.43;28.32;95969.28;5006265;28;20271;-70
2023/07/19 11:09:08;;;;;;;4.33;3.50;;;;;;;29.15;28.75;95977.38;5005939;28;20451;-70
2023/07/19 11:11:38;;;;;;;5.53;3.73;;;;;;;29.26;28.87;95981.41;5006403;28;20742;-70
2023/07/19 11:14:05;;;;;;;4.53;3.60;;;;;;;29.17;28.52;95964.47;5011965;28;20459;-70
2023/07/19 11:16:31;;;;;;;16.50;5.23;;;;;;;29.04;29.26;95958.94;5028155;28;20965;-70
2023/07/19 11:18:56;;;;;;;6.80;3.67;;;;;;;29.08;29.54;95955.69;5025853;28;20548;-70
2023/07/19 11:21:27;;;;;;;8.20;4.13;;;;;;;29.26;28.94;95959.78;5026329;28;20179;-70